»·PEaware :: AAL3059 KSEA-KBOI

AAL3059 :: KSEA-KBOI

FLIGHT INFORMATION

Flight Status: Arrived
Operator:
American Airlines
More flights by this operator :: More flights under this callsign
Pilot: Adam H. (32152)
Aircraft: AIRBUS A321
(A321)
More flights by this aircraft type
Origin: KSEA Seattle-Tacoma Intl
United States
Destination: KBOI Boise Air Terminal/Gowen
United States
More flights between these airports :: More routes between these airports
Route: SUMMA2 SUMMA J54 BKE DEVLE KYAAN3
File this flight plan on PilotEdge
Remarks: RMK / SIMBRIEF
Altitude:
(Current/Filed)
33,000ft
Speed:
(Current/Filed)
442kts
Departed: 31-Oct-20 07:56 PM
Arrived: 31-Oct-20 08:52 PM
Distance/Time
Traveled:
346nm/0:56
Distance/Time
To Go:
Arrived

Flight Plot

Page will automatically refresh every two minutes.

Flight plan parsing failed; only flown route is shown


Map Options




Map Legend


Flown Route
Filed Route
Departure Airport
Arrival Airport
Navaid (VOR, NDB)
Fix

Horizontal Profiles

Position Reports

Time Latitude Longitude Heading Altitude Ground
Speed
31-Oct-20 19:32 47.441730 -122.304365 90 382ft 0kts
31-Oct-20 19:33 47.441730 -122.304365 90 382ft 0kts
31-Oct-20 19:35 47.441730 -122.304365 90 382ft 0kts
31-Oct-20 19:36 47.441730 -122.304365 90 382ft 0kts
31-Oct-20 19:37 47.441730 -122.304365 90 382ft 0kts
31-Oct-20 19:38 47.441730 -122.304365 90 382ft 0kts
31-Oct-20 19:39 47.441730 -122.304365 90 382ft 0kts
31-Oct-20 19:40 47.441730 -122.304365 90 383ft 0kts
31-Oct-20 19:41 47.441730 -122.304365 90 383ft 0kts
31-Oct-20 19:42 47.441730 -122.304365 90 383ft 0kts
31-Oct-20 19:43 47.441730 -122.304365 90 383ft 0kts
31-Oct-20 19:44 47.441730 -122.304365 90 383ft 0kts
31-Oct-20 19:45 47.441730 -122.304541 89 382ft 2kts
31-Oct-20 19:46 47.441944 -122.305330 148 382ft 2kts
31-Oct-20 19:47 47.442239 -122.305443 180 382ft 0kts
31-Oct-20 19:48 47.442239 -122.305443 180 382ft 0kts
31-Oct-20 19:49 47.442239 -122.305443 180 382ft 0kts
31-Oct-20 19:50 47.441739 -122.305754 209 381ft 7kts
31-Oct-20 19:50 47.439032 -122.306386 180 369ft 12kts
31-Oct-20 19:52 47.434576 -122.305578 180 347ft 0kts
31-Oct-20 19:52 47.434576 -122.305578 180 347ft 0kts
31-Oct-20 19:54 47.434398 -122.305583 181 347ft 5kts
31-Oct-20 19:54 47.431794 -122.307470 318 327ft 12kts
31-Oct-20 19:56 47.462285 -122.307816 0 942ft 180kts
31-Oct-20 19:56 47.505921 -122.307673 1 2878ft 205kts
31-Oct-20 19:58 47.584245 -122.307066 0 5469ft 262kts
31-Oct-20 19:58 47.625189 -122.253771 94 7864ft 279kts
31-Oct-20 19:59 47.565758 -122.190078 166 10365ft 299kts
31-Oct-20 20:00 47.482978 -122.150676 163 12738ft 323kts
31-Oct-20 20:01 47.393180 -122.128268 184 14351ft 354kts
31-Oct-20 20:02 47.286158 -122.116740 177 15353ft 414kts
31-Oct-20 20:03 47.168536 -122.094460 176 17383ft 435kts
31-Oct-20 20:04 47.046686 -122.070696 175 19447ft 449kts
31-Oct-20 20:05 46.921309 -122.046282 175 21297ft 463kts
31-Oct-20 20:06 46.790911 -122.021022 175 22951ft 474kts
31-Oct-20 20:07 46.659067 -121.994218 167 24360ft 488kts
31-Oct-20 20:08 46.564629 -121.857316 119 26011ft 496kts
31-Oct-20 20:09 46.497226 -121.683427 120 27617ft 495kts
31-Oct-20 20:10 46.428083 -121.510589 120 29114ft 493kts
31-Oct-20 20:11 46.358943 -121.338736 121 30428ft 493kts
31-Oct-20 20:12 46.289510 -121.166666 121 31571ft 493kts
31-Oct-20 20:13 46.219796 -120.995407 121 32641ft 493kts
31-Oct-20 20:14 46.149297 -120.823383 121 33382ft 494kts
31-Oct-20 20:15 46.078084 -120.650702 121 33393ft 500kts
31-Oct-20 20:16 46.006664 -120.478549 121 33393ft 500kts
31-Oct-20 20:17 45.934715 -120.306080 122 33393ft 498kts
31-Oct-20 20:18 45.862560 -120.134574 122 33393ft 499kts
31-Oct-20 20:19 45.790304 -119.964058 122 33389ft 499kts
31-Oct-20 20:20 45.717460 -119.792674 122 33387ft 498kts
31-Oct-20 20:21 45.644624 -119.622640 121 33386ft 498kts
31-Oct-20 20:22 45.571772 -119.453393 121 33386ft 497kts
31-Oct-20 20:23 45.498633 -119.284247 122 33386ft 497kts
31-Oct-20 20:24 45.425949 -119.116991 122 33387ft 497kts
31-Oct-20 20:25 45.352536 -118.949383 122 33385ft 497kts
31-Oct-20 20:26 45.278642 -118.781714 122 33375ft 497kts
31-Oct-20 20:27 45.204596 -118.614690 121 33368ft 498kts
31-Oct-20 20:28 45.130277 -118.448018 121 33367ft 497kts
31-Oct-20 20:29 45.055919 -118.282038 122 33368ft 497kts
31-Oct-20 20:30 44.981670 -118.117212 122 33371ft 496kts
31-Oct-20 20:31 44.906538 -117.951819 121 33080ft 498kts
31-Oct-20 20:32 44.820249 -117.796740 138 31081ft 500kts
31-Oct-20 20:33 44.705960 -117.686358 148 28136ft 499kts
31-Oct-20 20:34 44.588312 -117.582042 148 24859ft 501kts
31-Oct-20 20:35 44.471120 -117.477721 148 21721ft 487kts
31-Oct-20 20:36 44.358774 -117.378185 148 19275ft 470kts
31-Oct-20 20:37 44.249808 -117.281797 148 16905ft 453kts
31-Oct-20 20:38 44.153352 -117.172105 137 14637ft 438kts
31-Oct-20 20:39 44.066079 -117.057470 137 12519ft 422kts
31-Oct-20 20:40 43.985998 -116.953025 135 10887ft 350kts
31-Oct-20 20:41 43.933424 -116.857893 123 10366ft 287kts
31-Oct-20 20:42 43.888722 -116.765654 124 9899ft 280kts
31-Oct-20 20:43 43.845735 -116.677708 124 8841ft 271kts
31-Oct-20 20:44 43.793068 -116.605697 142 7676ft 264kts
31-Oct-20 20:45 43.735265 -116.544563 142 6507ft 258kts
31-Oct-20 20:46 43.678895 -116.484833 141 5767ft 254kts
31-Oct-20 20:47 43.630114 -116.421374 114 5259ft 216kts
31-Oct-20 20:48 43.606741 -116.349910 115 4518ft 185kts
31-Oct-20 20:49 43.586752 -116.291220 115 3562ft 145kts
31-Oct-20 20:50 43.569335 -116.240416 116 2873ft 145kts
31-Oct-20 20:51 43.562289 -116.216969 1 2856ft 0kts
31-Oct-20 20:52 43.562289 -116.216969 1 2856ft 0kts
31-Oct-20 20:53 43.562344 -116.216968 359 2856ft 1kts
31-Oct-20 20:54 43.564049 -116.217125 354 2856ft 9kts
31-Oct-20 20:55 43.566770 -116.218416 323 2853ft 0kts
31-Oct-20 20:56 43.566770 -116.218416 323 2853ft 0kts
31-Oct-20 20:57 43.566770 -116.218416 323 2853ft 0kts

Navigation Log

Ident Type
Flight plan parsing failed, navigation log unavailable